Time;durP1;ratioP1;P1;durP2;ratioP2;P2;SDS_P1;SDS_P2;PMS_P1;PMS_P2;Temp;Humidity;BMP_temperature;BMP_pressure;BME280_temperature;BME280_humidity;BME280_pressure;Samples;Min_cycle;Max_cycle;Signal;HPM_P1;HPM_P2
2023/09/25 00:00:49;;;;;;;1.45;0.25;;;17.30;99.90;;;15.90;100.00;100670.88;10170868;28;97667;-90
2023/09/25 00:05:54;;;;;;;0.55;0.30;;;17.30;99.90;;;15.92;100.00;100658.13;10177359;28;98505;-90
2023/09/25 00:10:58;;;;;;;0.30;0.17;;;17.40;99.90;;;15.93;100.00;100646.38;10193636;28;98127;-90
2023/09/25 00:16:02;;;;;;;1.40;0.20;;;17.40;99.90;;;15.95;100.00;100638.94;10160600;28;96667;-89
2023/09/25 00:21:05;;;;;;;0.28;0.10;;;17.40;99.90;;;15.96;100.00;100632.59;10177430;28;97502;-90
2023/09/25 00:26:09;;;;;;;0.57;0.20;;;17.40;99.90;;;15.98;100.00;100634.06;10200980;28;96683;-89
2023/09/25 00:31:13;;;;;;;1.08;0.43;;;17.40;99.90;;;15.97;100.00;100624.34;10179226;28;97331;-89
2023/09/25 00:36:17;;;;;;;0.40;0.10;;;17.40;99.90;;;15.97;100.00;100607.44;10179132;28;96711;-89
2023/09/25 00:41:21;;;;;;;1.95;0.32;;;17.40;99.90;;;15.98;100.00;100606.41;10177243;28;96673;-89
2023/09/25 00:46:25;;;;;;;0.30;0.20;;;17.40;99.90;;;15.95;98.83;100607.66;10188815;28;97302;-89
2023/09/25 00:51:30;;;;;;;0.50;0.25;;;17.40;99.90;;;15.98;99.44;100609.94;10181175;28;96530;-89
2023/09/25 00:56:34;;;;;;;0.65;0.28;;;17.40;99.90;;;15.99;99.01;100602.72;10195311;28;97307;-89
2023/09/25 01:01:39;;;;;;;1.90;0.52;;;17.40;99.90;;;15.99;99.68;100595.50;10186818;28;97859;-89
2023/09/25 01:06:44;;;;;;;0.70;0.30;;;17.40;99.90;;;16.01;100.00;100603.34;10179221;28;98474;-88
2023/09/25 01:11:48;;;;;;;0.50;0.30;;;17.40;99.90;;;16.02;100.00;100618.44;10207122;28;96769;-89
2023/09/25 01:16:51;;;;;;;8.45;1.13;;;17.40;99.90;;;16.01;100.00;100624.78;10203355;28;96753;-89
2023/09/25 01:21:55;;;;;;;3.80;0.35;;;17.50;99.90;;;16.03;100.00;100645.03;10156994;28;97229;-89
2023/09/25 01:26:59;;;;;;;1.15;0.43;;;17.50;99.90;;;16.03;100.00;100660.28;10197137;28;96645;-89
2023/09/25 01:32:04;;;;;;;1.35;0.28;;;17.50;99.90;;;16.05;100.00;100658.22;10190502;28;96589;-88
2023/09/25 01:37:08;;;;;;;1.20;0.60;;;17.50;99.90;;;16.06;100.00;100662.56;10201565;28;97552;-89
2023/09/25 01:42:11;;;;;;;0.70;0.35;;;17.50;99.90;;;16.02;100.00;100661.31;10192341;28;98541;-88
2023/09/25 01:47:17;;;;;;;1.17;0.40;;;17.50;99.90;;;16.01;100.00;100648.91;10177468;28;97990;-88
2023/09/25 01:52:20;;;;;;;0.60;0.40;;;17.40;99.90;;;15.98;100.00;100638.59;10186139;28;97854;-88
2023/09/25 01:57:24;;;;;;;3.65;0.57;;;17.40;99.90;;;15.97;100.00;100644.97;10182368;28;96636;-89
2023/09/25 02:02:28;;;;;;;0.90;0.50;;;17.40;99.90;;;15.96;100.00;100636.09;10218909;28;96912;-88
2023/09/25 02:07:33;;;;;;;3.65;0.47;;;17.40;99.90;;;15.96;100.00;100625.38;10163713;28;98045;-89
2023/09/25 02:12:39;;;;;;;1.55;0.60;;;17.40;99.90;;;15.96;100.00;100621.88;10201556;28;96700;-89
2023/09/25 02:17:43;;;;;;;0.40;0.30;;;17.40;99.90;;;15.97;100.00;100620.84;10201560;28;97441;-89
2023/09/25 02:22:48;;;;;;;0.47;0.30;;;17.40;99.90;;;15.99;100.00;100616.13;10191207;28;96508;-89
2023/09/25 02:27:52;;;;;;;0.32;0.20;;;17.40;99.90;;;16.00;100.00;100588.28;10151523;28;96716;-89
2023/09/25 02:32:55;;;;;;;0.30;0.20;;;17.40;99.90;;;16.02;100.00;100579.03;10195975;28;96889;-89
2023/09/25 02:37:59;;;;;;;2.15;0.30;;;17.50;99.90;;;16.04;100.00;100579.66;10173994;28;96805;-89
2023/09/25 02:43:04;;;;;;;1.88;0.30;;;17.50;99.90;;;16.00;100.00;100561.47;10181968;28;97203;-88
2023/09/25 02:48:08;;;;;;;0.47;0.22;;;17.50;99.90;;;16.01;100.00;100555.09;10197171;28;98485;-88
2023/09/25 02:53:12;;;;;;;1.10;0.40;;;17.40;99.90;;;15.99;100.00;100567.88;10199163;28;97132;-88
2023/09/25 02:58:17;;;;;;;0.73;0.25;;;17.40;99.90;;;15.95;100.00;100555.88;10170378;28;97075;-90
2023/09/25 03:03:20;;;;;;;0.70;0.30;;;17.40;99.90;;;15.92;100.00;100580.41;10196678;28;97964;-89
2023/09/25 03:08:24;;;;;;;0.85;0.30;;;17.40;99.90;;;15.89;100.00;100581.59;10182914;28;97007;-90
2023/09/25 03:13:28;;;;;;;6.28;0.40;;;17.40;99.90;;;15.86;100.00;100597.25;10181928;28;96738;-91
2023/09/25 03:18:35;;;;;;;1.73;0.50;;;17.30;99.90;;;15.81;100.00;100586.25;10169946;28;96700;-90
2023/09/25 03:23:40;;;;;;;2.67;0.45;;;17.30;99.90;;;15.80;100.00;100609.56;10210153;28;96733;-89
2023/09/25 03:28:46;;;;;;;1.70;0.45;;;17.20;99.90;;;15.79;100.00;100598.00;10180678;28;98589;-90
2023/09/25 03:33:50;;;;;;;0.73;0.30;;;17.20;99.90;;;15.81;100.00;100603.16;10202126;28;97812;-89
2023/09/25 03:38:55;;;;;;;2.97;0.60;;;17.20;99.90;;;15.82;100.00;100607.50;10209249;28;96851;-91
2023/09/25 03:43:59;;;;;;;0.98;0.50;;;17.30;99.90;;;15.84;100.00;100604.66;10195088;28;97320;-90
2023/09/25 03:49:05;;;;;;;0.85;0.20;;;17.30;99.90;;;15.88;100.00;100614.78;10168855;28;96785;-91
2023/09/25 03:54:10;;;;;;;1.35;0.52;;;17.30;99.90;;;15.92;100.00;100634.81;10178819;28;96906;-91
2023/09/25 03:59:14;;;;;;;4.95;0.45;;;17.40;99.90;;;15.96;100.00;100648.69;10175070;28;97769;-90
2023/09/25 04:04:18;;;;;;;0.70;0.32;;;17.40;99.90;;;16.01;100.00;100667.66;10216828;28;96769;-90
2023/09/25 04:09:22;;;;;;;5.55;0.60;;;17.50;99.90;;;16.03;100.00;100677.19;10196671;28;96831;-90
2023/09/25 04:14:28;;;;;;;0.95;0.40;;;17.50;99.90;;;16.07;100.00;100688.34;10152119;28;96749;-90
2023/09/25 04:19:31;;;;;;;2.08;0.50;;;17.50;99.90;;;16.10;100.00;100693.34;10188513;28;98391;-89
2023/09/25 04:24:38;;;;;;;1.90;0.55;;;17.60;99.90;;;16.10;100.00;100682.63;10144120;28;97440;-90
2023/09/25 04:29:42;;;;;;;2.50;0.77;;;17.60;99.90;;;16.11;100.00;100695.00;10196513;28;96775;-89
2023/09/25 04:34:47;;;;;;;2.78;0.52;;;17.60;99.90;;;16.10;100.00;100698.72;10147382;28;98175;-89
2023/09/25 04:39:51;;;;;;;1.00;0.70;;;17.60;99.90;;;16.08;100.00;100698.06;10159193;28;96795;-89
2023/09/25 04:44:54;;;;;;;0.80;0.40;;;17.60;99.90;;;16.10;100.00;100713.97;10186082;28;96667;-89
2023/09/25 04:49:58;;;;;;;1.35;0.65;;;17.60;99.90;;;16.10;100.00;100719.31;10175995;28;96695;-89
2023/09/25 04:55:07;;;;;;;1.83;0.43;;;17.60;99.90;;;16.08;100.00;100716.84;10198039;28;97163;-89
2023/09/25 05:00:25;;;;;;;3.63;0.60;;;17.60;99.90;;;16.09;100.00;100712.31;10190324;28;96643;-89
2023/09/25 05:05:31;;;;;;;0.52;0.40;;;17.60;99.90;;;16.09;100.00;100721.19;10167285;28;97361;-89
2023/09/25 05:10:35;;;;;;;1.52;0.73;;;17.60;99.90;;;16.11;100.00;100721.81;10181909;28;96847;-89
2023/09/25 05:15:38;;;;;;;0.80;0.60;;;17.60;99.90;;;16.13;100.00;100722.44;10188226;28;99740;-89
2023/09/25 05:20:42;;;;;;;1.08;0.60;;;17.60;99.90;;;16.17;100.00;100726.41;10210014;28;97455;-90
2023/09/25 05:25:48;;;;;;;3.28;0.40;;;17.60;99.90;;;16.19;100.00;100724.38;10186348;28;96794;-90
2023/09/25 05:30:56;;;;;;;1.13;0.57;;;17.60;99.90;;;16.23;100.00;100720.28;10193347;28;96728;-90
2023/09/25 05:36:02;;;;;;;2.60;0.32;;;17.70;99.90;;;16.32;100.00;100729.03;10202107;28;96616;-90
2023/09/25 05:41:06;;;;;;;0.93;0.40;;;17.80;99.90;;;16.38;100.00;100730.94;10176608;28;97475;-90
2023/09/25 05:46:11;;;;;;;1.10;0.50;;;17.80;99.90;;;16.44;100.00;100732.03;10163792;28;97849;-90
2023/09/25 05:51:15;;;;;;;2.33;0.40;;;17.90;99.90;;;16.52;100.00;100734.56;10214264;28;97489;-90
2023/09/25 05:56:19;;;;;;;6.38;0.85;;;18.00;99.90;;;16.57;100.00;100746.38;10193668;28;98016;-90
2023/09/25 06:01:23;;;;;;;5.45;0.88;;;18.10;99.90;;;16.63;100.00;100744.78;10171260;28;96615;-90
2023/09/25 06:06:27;;;;;;;7.88;0.52;;;18.10;99.90;;;16.71;100.00;100765.28;10176175;28;96697;-90
2023/09/25 06:11:37;;;;;;;1.25;0.60;;;18.20;99.90;;;16.77;100.00;100762.66;10202227;28;97504;-90
2023/09/25 06:16:41;;;;;;;0.95;0.50;;;18.30;99.90;;;16.89;100.00;100784.44;10202117;28;97812;-90
2023/09/25 06:21:45;;;;;;;8.05;0.60;;;18.30;99.90;;;17.02;100.00;100783.69;10165530;28;96745;-90
2023/09/25 06:26:49;;;;;;;2.45;0.57;;;18.50;99.90;;;17.11;100.00;100772.63;10176997;28;96598;-90
2023/09/25 06:31:53;;;;;;;2.38;0.40;;;18.60;99.90;;;17.22;100.00;100771.25;10175623;28;96805;-90
2023/09/25 06:37:05;;;;;;;10.20;1.33;;;18.70;99.90;;;17.33;100.00;100781.44;10217059;28;96493;-90
2023/09/25 06:42:09;;;;;;;1.23;0.43;;;18.80;99.90;;;17.45;100.00;100780.84;10204915;28;98051;-86
2023/09/25 06:47:12;;;;;;;1.30;0.45;;;18.90;99.90;;;17.59;100.00;100786.13;10189753;28;97163;-85
2023/09/25 06:52:16;;;;;;;1.27;0.40;;;19.10;99.90;;;17.74;100.00;100783.31;10214845;28;97439;-87
2023/09/25 06:57:19;;;;;;;24.80;1.52;;;19.30;99.90;;;17.90;100.00;100796.41;10208372;28;96786;-86
2023/09/25 07:02:25;;;;;;;1.13;0.50;;;19.40;99.90;;;18.01;100.00;100796.88;10179441;28;97108;-85
2023/09/25 07:07:28;;;;;;;2.42;0.30;;;19.50;99.90;;;18.10;100.00;100814.47;10182474;28;97248;-88
2023/09/25 07:12:33;;;;;;;4.47;0.70;;;19.60;99.90;;;18.21;99.79;100821.94;10193795;28;98191;-86
2023/09/25 07:17:37;;;;;;;0.70;0.32;;;19.70;99.90;;;18.31;98.52;100824.25;10189758;28;98381;-86
2023/09/25 07:22:42;;;;;;;1.25;0.40;;;19.80;99.90;;;18.34;95.93;100831.91;10188796;28;97927;-86
2023/09/25 07:27:46;;;;;;;1.08;0.60;;;19.90;99.90;;;18.37;95.07;100831.53;10187807;28;97930;-86
2023/09/25 07:32:49;;;;;;;2.42;0.40;;;19.90;99.90;;;18.44;93.46;100830.50;10192361;28;98284;-87
2023/09/25 07:37:53;;;;;;;4.57;0.55;;;20.00;99.90;;;18.61;93.91;100825.56;10171511;28;96703;-87
2023/09/25 07:42:57;;;;;;;1.67;0.52;;;20.10;99.90;;;18.80;93.23;100823.13;10190415;28;96599;-87
2023/09/25 07:48:06;;;;;;;2.35;0.50;;;20.30;99.90;;;19.05;93.03;100828.72;10207349;28;96512;-87
2023/09/25 07:53:14;;;;;;;1.52;0.77;;;20.50;99.90;;;19.17;90.46;100838.63;10192410;28;96587;-87
2023/09/25 07:58:18;;;;;;;1.92;0.50;;;20.60;99.90;;;19.32;89.03;100838.44;10177764;28;96723;-87
2023/09/25 08:03:23;;;;;;;0.70;0.40;;;20.80;99.90;;;19.51;89.08;100842.94;10170613;28;96675;-87
2023/09/25 08:08:26;;;;;;;2.78;0.75;;;21.00;99.90;;;19.75;88.43;100856.81;10214716;28;97415;-88
2023/09/25 08:13:33;;;;;;;1.60;0.50;;;21.20;99.90;;;19.76;85.95;100861.16;10216092;28;97410;-87
2023/09/25 08:18:37;;;;;;;0.75;0.50;;;21.30;99.90;;;19.68;84.68;100864.94;10203305;28;97395;-91
2023/09/25 08:23:41;;;;;;;3.83;0.68;;;21.20;99.90;;;19.64;85.94;100871.78;10179317;28;96562;-92
2023/09/25 08:28:45;;;;;;;2.80;0.68;;;21.20;99.90;;;19.58;85.74;100877.16;10182120;28;98396;-91
2023/09/25 08:33:48;;;;;;;3.50;0.50;;;21.20;99.90;;;19.58;86.65;100871.75;10211868;28;96616;-90
2023/09/25 08:38:53;;;;;;;1.00;0.70;;;21.20;99.90;;;19.76;88.38;100871.94;10182615;28;96686;-91
2023/09/25 08:43:57;;;;;;;5.80;0.65;;;21.30;99.90;;;20.04;85.28;100866.28;10204785;28;98404;-91
2023/09/25 08:49:04;;;;;;;3.38;0.70;;;21.60;99.90;;;20.19;83.78;100853.31;10164083;28;97341;-90
2023/09/25 08:54:08;;;;;;;5.80;0.80;;;21.80;99.90;;;20.28;84.13;100862.84;10171302;28;97442;-90
2023/09/25 08:59:12;;;;;;;1.60;0.80;;;21.80;99.90;;;20.39;83.51;100866.72;10163693;28;98945;-89
2023/09/25 09:04:16;;;;;;;10.80;1.20;;;21.90;99.90;;;20.63;85.01;100858.91;10171446;28;97502;-91
2023/09/25 09:09:21;;;;;;;2.28;1.00;;;22.10;99.90;;;20.67;81.68;100865.53;10191191;28;96899;-88
2023/09/25 09:14:40;;;;;;;1.05;0.68;;;22.20;99.90;;;20.64;82.20;100865.97;10175968;28;96650;-89
2023/09/25 09:19:47;;;;;;;1.75;0.77;;;22.20;99.90;;;20.58;82.48;100865.81;10218966;28;96652;-91
2023/09/25 09:24:53;;;;;;;4.57;1.23;;;22.10;99.90;;;20.52;82.26;100871.25;10232724;28;98374;-91
2023/09/25 09:29:57;;;;;;;2.60;0.80;;;22.10;99.90;;;20.55;84.38;100871.63;10227368;28;96823;-90
2023/09/25 09:35:06;;;;;;;1.65;0.77;;;22.10;99.90;;;20.57;83.99;100872.25;10197914;28;97436;-90
2023/09/25 09:40:11;;;;;;;7.13;0.90;;;22.10;99.90;;;20.58;83.91;100867.69;10190923;28;96894;-86
2023/09/25 09:45:15;;;;;;;1.67;0.90;;;22.10;99.90;;;20.58;83.93;100860.41;10196642;28;97763;-87
2023/09/25 09:50:26;;;;;;;2.40;1.02;;;22.10;99.90;;;20.63;83.48;100857.06;10177667;28;97874;-87
2023/09/25 09:55:34;;;;;;;7.72;1.10;;;22.20;99.90;;;20.64;82.51;100850.59;10161762;28;97495;-86
2023/09/25 10:00:41;;;;;;;1.45;0.80;;;22.20;99.90;;;20.67;83.12;100854.72;10160835;28;96450;-86
2023/09/25 10:05:48;;;;;;;5.53;2.05;;;22.20;99.90;;;20.74;83.25;100864.44;10180705;28;98196;-87
2023/09/25 10:10:52;;;;;;;5.38;1.13;;;22.20;99.90;;;20.93;83.79;100859.09;10183637;28;96600;-87
2023/09/25 10:16:01;;;;;;;6.88;1.00;;;22.40;99.90;;;21.11;81.08;100860.00;10186732;28;97378;-87
2023/09/25 10:21:13;;;;;;;5.10;0.83;;;22.60;99.90;;;21.37;81.70;100850.84;10177948;28;96683;-89
2023/09/25 10:26:22;;;;;;;6.45;0.82;;;22.80;99.90;;;21.53;79.92;100857.56;10208057;28;98732;-88
2023/09/25 10:31:29;;;;;;;4.15;0.95;;;23.10;99.70;;;21.68;80.33;100861.78;10229510;28;97547;-88
2023/09/25 10:36:52;;;;;;;1.83;1.00;;;23.20;99.60;;;21.71;79.15;100858.59;10216952;28;96611;-90
2023/09/25 10:42:07;;;;;;;6.55;1.27;;;23.30;99.30;;;21.75;79.76;100849.00;10193062;28;97707;-88
2023/09/25 10:47:11;;;;;;;2.63;0.95;;;23.30;99.40;;;21.79;80.17;100837.50;10194317;28;97786;-88
2023/09/25 10:52:16;;;;;;;1.40;0.77;;;23.30;99.30;;;21.96;79.60;100843.13;10199442;28;96452;-89
2023/09/25 10:57:20;;;;;;;2.22;1.05;;;23.50;99.30;;;22.22;81.44;100846.56;10186499;28;96694;-88
2023/09/25 11:02:24;;;;;;;12.77;1.58;;;23.80;99.50;;;22.59;79.28;100845.41;10198322;28;96691;-88
2023/09/25 11:07:28;;;;;;;6.97;1.00;;;24.30;99.20;;;23.05;76.74;100840.34;10178698;28;96927;-86
2023/09/25 11:12:35;;;;;;;5.30;1.00;;;24.80;99.00;;;23.71;74.05;100833.75;10206354;28;100059;-92
2023/09/25 11:17:39;;;;;;;1.92;0.52;;;25.60;98.70;;;24.18;71.21;100833.59;10192203;28;96824;-93
2023/09/25 11:22:43;;;;;;;2.28;0.90;;;26.10;97.30;;;24.65;70.27;100820.66;10169564;28;96672;-93
2023/09/25 11:27:55;;;;;;;4.25;0.70;;;26.60;97.00;;;25.28;68.20;100807.78;10198650;28;96507;-94
2023/09/25 11:33:07;;;;;;;3.63;0.70;;;27.20;96.60;;;25.91;64.15;100805.59;10195139;28;96883;-91
2023/09/25 11:38:17;;;;;;;4.45;0.93;;;27.60;95.30;;;26.03;62.21;100800.84;10196889;28;97870;-93
2023/09/25 11:43:24;;;;;;;2.00;0.70;;;27.50;94.10;;;25.74;59.91;100795.63;10160684;28;98022;-91
2023/09/25 11:48:28;;;;;;;2.35;0.70;;;27.20;92.40;;;25.56;62.25;100802.19;10159468;28;96783;-91
2023/09/25 11:53:32;;;;;;;2.83;0.68;;;26.90;92.60;;;25.44;61.86;100803.38;10187118;28;96668;-90
2023/09/25 11:58:36;;;;;;;4.45;0.70;;;26.70;92.60;;;25.53;64.30;100793.69;10169494;28;98004;-91
2023/09/25 12:03:41;;;;;;;6.60;1.17;;;26.70;93.00;;;25.56;62.51;100793.19;10176350;28;96931;-90
2023/09/25 12:08:44;;;;;;;4.95;1.35;;;26.70;92.40;;;25.51;63.41;100782.25;10158654;28;96445;-92
2023/09/25 12:13:49;;;;;;;3.17;1.00;;;26.70;92.60;;;25.25;61.44;100784.63;10170775;28;98365;-91
2023/09/25 12:18:56;;;;;;;3.28;0.90;;;26.50;91.90;;;25.11;62.68;100777.88;10195423;28;96854;-91
2023/09/25 12:24:00;;;;;;;14.95;0.90;;;26.40;92.10;;;24.93;63.48;100775.41;10173830;28;96744;-92
2023/09/25 12:29:07;;;;;;;3.15;0.85;;;26.20;92.30;;;24.69;64.70;100770.16;10175983;28;96648;-91
2023/09/25 12:34:10;;;;;;;7.05;1.10;;;26.10;92.40;;;24.52;64.96;100772.84;10193056;28;97721;-93
2023/09/25 12:39:16;;;;;;;5.07;1.27;;;25.90;92.50;;;24.29;64.74;100762.13;10173253;28;96648;-93
2023/09/25 12:44:20;;;;;;;6.40;1.25;;;25.80;92.40;;;24.16;66.48;100770.56;10170431;28;98900;-92
2023/09/25 12:49:24;;;;;;;4.05;1.85;;;25.60;92.60;;;24.08;67.19;100765.53;10175705;28;98904;-92
2023/09/25 12:54:28;;;;;;;2.55;1.00;;;25.50;92.80;;;24.08;67.63;100762.81;10191445;28;96681;-92
2023/09/25 12:59:32;;;;;;;9.82;1.40;;;25.50;93.00;;;23.97;66.85;100757.19;10207627;28;97086;-90
2023/09/25 13:04:36;;;;;;;4.70;1.52;;;25.40;92.80;;;23.95;66.96;100753.06;10207078;28;97783;-92
2023/09/25 13:09:39;;;;;;;4.25;0.93;;;25.40;92.90;;;23.95;67.99;100753.06;10184837;28;96577;-90
2023/09/25 13:14:43;;;;;;;5.07;1.08;;;25.40;93.10;;;23.95;68.05;100759.31;10215529;28;97635;-89
2023/09/25 13:19:48;;;;;;;3.35;1.08;;;25.40;93.10;;;24.00;68.48;100755.88;10190262;28;96650;-93
2023/09/25 13:24:51;;;;;;;4.60;1.10;;;25.40;93.30;;;24.03;68.76;100761.63;10176527;28;97550;-94
2023/09/25 13:29:56;;;;;;;6.93;1.30;;;25.50;93.50;;;24.06;68.82;100768.50;10186987;28;97110;-92
2023/09/25 13:34:59;;;;;;;2.38;0.90;;;25.40;93.60;;;24.04;68.96;100770.59;10202172;28;96657;-92
2023/09/25 13:40:05;;;;;;;2.15;1.05;;;25.40;93.60;;;24.01;69.91;100768.38;10219559;28;96694;-93
2023/09/25 13:45:12;;;;;;;7.55;0.90;;;25.40;93.70;;;23.98;69.74;100763.44;10227417;28;97131;-92
2023/09/25 13:50:16;;;;;;;2.65;0.75;;;25.40;93.80;;;23.99;70.43;100759.66;10223533;28;98542;-92
2023/09/25 13:55:20;;;;;;;5.15;0.95;;;25.40;93.90;;;23.95;70.24;100755.78;10228680;28;98292;-87
2023/09/25 14:00:24;;;;;;;8.15;0.75;;;25.40;93.90;;;23.97;70.51;100756.34;10187344;28;96645;-87
2023/09/25 14:05:28;;;;;;;1.23;0.80;;;25.40;94.00;;;23.93;70.08;100749.75;10186403;28;96674;-92
2023/09/25 14:10:38;;;;;;;3.30;0.77;;;25.40;94.00;;;23.89;69.98;100737.75;10161124;28;96626;-88
2023/09/25 14:15:42;;;;;;;2.30;0.90;;;25.30;93.90;;;23.88;71.22;100742.38;10211186;28;96761;-89
2023/09/25 14:20:49;;;;;;;2.65;0.80;;;25.30;94.00;;;23.94;71.41;100721.56;10187686;28;97651;-89
2023/09/25 14:25:53;;;;;;;4.72;1.05;;;25.30;94.10;;;23.97;69.64;100724.59;10167149;28;96889;-89
2023/09/25 14:31:00;;;;;;;4.95;1.05;;;25.40;94.00;;;24.06;70.56;100735.91;10179851;28;96979;-89
2023/09/25 14:36:06;;;;;;;6.18;0.80;;;25.40;94.10;;;24.16;71.01;100727.94;10187482;28;98671;-88
2023/09/25 14:41:10;;;;;;;0.88;0.57;;;25.50;94.00;;;24.19;70.97;100719.31;10183256;28;96761;-88
2023/09/25 14:46:13;;;;;;;2.13;0.82;;;25.60;94.00;;;24.20;70.82;100723.66;10200711;28;96767;-88
2023/09/25 14:51:17;;;;;;;7.63;2.05;;;25.60;94.00;;;24.15;69.10;100718.13;10171994;28;96691;-89
2023/09/25 14:56:21;;;;;;;1.67;0.52;;;25.50;93.80;;;24.14;70.15;100718.38;10177714;28;97637;-89
2023/09/25 15:01:24;;;;;;;7.30;1.00;;;25.50;93.90;;;24.18;70.65;100725.00;10198214;28;96563;-88
2023/09/25 15:06:28;;;;;;;0.80;0.60;;;25.50;93.90;;;24.21;70.66;100719.88;10191611;28;96625;-88
2023/09/25 15:11:32;;;;;;;2.47;0.55;;;25.60;94.00;;;24.41;71.50;100721.31;10158407;28;96639;-88
2023/09/25 15:16:36;;;;;;;2.50;0.80;;;26.00;94.40;;;24.88;72.64;100718.25;10163652;28;96487;-88
2023/09/25 15:21:40;;;;;;;2.15;0.60;;;26.60;94.20;;;25.21;69.05;100715.47;10164947;28;96758;-89
2023/09/25 15:26:45;;;;;;;3.83;0.70;;;27.00;93.60;;;25.36;68.08;100723.81;10186445;28;96755;-88
2023/09/25 15:31:48;;;;;;;1.73;0.73;;;27.00;93.20;;;25.34;69.10;100720.53;10156794;28;96680;-88
2023/09/25 15:36:52;;;;;;;1.65;0.73;;;26.90;93.20;;;25.16;68.11;100729.00;10196978;28;96590;-88
2023/09/25 15:41:56;;;;;;;2.30;0.70;;;26.70;93.00;;;24.94;68.08;100739.81;10191520;28;97446;-88
2023/09/25 15:47:03;;;;;;;2.28;0.70;;;26.40;93.00;;;24.66;69.32;100742.66;10158793;28;96500;-87
2023/09/25 15:52:07;;;;;;;1.50;0.82;;;26.10;93.20;;;24.42;70.45;100752.88;10195614;28;97411;-88
2023/09/25 15:57:10;;;;;;;1.92;0.70;;;25.80;93.40;;;24.14;70.93;100754.50;10181070;28;96520;-87
2023/09/25 16:02:14;;;;;;;3.00;0.93;;;25.50;93.60;;;23.84;71.51;100757.47;10173827;28;97477;-87
2023/09/25 16:07:20;;;;;;;1.88;1.00;;;25.20;93.90;;;23.55;72.95;100750.34;10181565;28;96716;-87
2023/09/25 16:12:28;;;;;;;4.47;1.00;;;24.90;94.20;;;23.29;73.65;100757.13;10212750;28;96665;-88
2023/09/25 16:17:35;;;;;;;1.70;1.00;;;24.60;94.50;;;23.03;74.50;100763.84;10179691;28;97677;-87
2023/09/25 16:22:39;;;;;;;3.15;1.48;;;24.30;94.80;;;22.79;75.88;100757.56;10172003;28;98586;-87
2023/09/25 16:27:43;;;;;;;1.95;1.20;;;24.10;95.10;;;22.51;77.16;100759.09;10177064;28;96567;-87
2023/09/25 16:32:47;;;;;;;2.38;1.20;;;23.80;95.40;;;22.26;78.51;100764.69;10198938;28;96529;-86
2023/09/25 16:37:54;;;;;;;3.10;1.00;;;23.60;95.80;;;22.02;79.67;100771.88;10180743;28;97859;-87
2023/09/25 16:42:57;;;;;;;5.25;1.15;;;23.30;96.20;;;21.75;80.95;100771.38;10176011;28;98415;-87
2023/09/25 16:48:05;;;;;;;2.42;0.90;;;23.00;96.60;;;21.53;82.24;100779.16;10195327;28;96607;-87
2023/09/25 16:53:09;;;;;;;3.28;1.35;;;22.80;97.00;;;21.31;83.67;100769.81;10190547;28;97462;-87
2023/09/25 16:58:18;;;;;;;5.43;0.93;;;22.60;97.40;;;21.13;84.52;100772.47;10195865;28;98113;-87
2023/09/25 17:03:22;;;;;;;2.40;0.90;;;22.40;97.70;;;20.98;85.67;100780.94;10215954;28;96623;-88
2023/09/25 17:08:26;;;;;;;1.23;0.80;;;22.20;98.10;;;20.81;85.88;100781.50;10199724;28;97854;-87
2023/09/25 17:13:29;;;;;;;2.47;0.90;;;22.10;98.30;;;20.72;86.68;100787.41;10201874;28;96744;-87
2023/09/25 17:18:35;;;;;;;1.60;0.90;;;22.00;98.50;;;20.63;87.26;100796.78;10202413;28;99109;-87
2023/09/25 17:23:39;;;;;;;2.30;0.98;;;21.90;98.60;;;20.57;87.85;100796.66;10205764;28;96761;-88
2023/09/25 17:28:43;;;;;;;1.83;1.10;;;21.80;98.80;;;20.48;88.45;100799.81;10215569;28;99547;-88
2023/09/25 17:33:49;;;;;;;2.88;1.00;;;21.70;98.90;;;20.38;88.91;100802.13;10193914;28;96710;-88
2023/09/25 17:38:54;;;;;;;3.50;1.20;;;21.60;99.20;;;20.27;89.76;100806.34;10214722;28;96586;-88
2023/09/25 17:43:58;;;;;;;2.50;1.00;;;21.50;99.40;;;20.18;90.41;100813.88;10178292;28;96507;-88
2023/09/25 17:49:04;;;;;;;3.92;1.45;;;21.40;99.70;;;20.09;91.13;100811.63;10202882;28;96971;-88
2023/09/25 17:54:08;;;;;;;3.45;1.00;;;21.40;99.80;;;20.03;91.78;100813.31;10198334;28;96756;-87
2023/09/25 17:59:13;;;;;;;2.38;1.27;;;21.30;99.90;;;20.01;92.21;100821.66;10199884;28;98491;-88
2023/09/25 18:04:17;;;;;;;2.63;1.20;;;21.20;99.90;;;19.97;92.97;100822.28;10213696;28;96712;-87
2023/09/25 18:09:21;;;;;;;3.22;1.13;;;21.20;99.90;;;19.90;93.09;100825.00;10187715;28;97928;-86
2023/09/25 18:14:25;;;;;;;4.35;1.10;;;21.20;99.90;;;19.81;93.72;100818.22;10189131;28;96611;-88
2023/09/25 18:19:28;;;;;;;2.45;1.10;;;21.10;99.90;;;19.77;94.19;100825.06;10176880;28;96638;-87
2023/09/25 18:24:32;;;;;;;2.40;1.20;;;21.00;99.90;;;19.72;94.93;100831.09;10195556;28;96592;-88
2023/09/25 18:29:37;;;;;;;2.85;1.27;;;21.00;99.90;;;19.71;95.07;100834.00;10177585;28;98213;-87
2023/09/25 18:34:41;;;;;;;4.00;1.15;;;21.00;99.90;;;19.67;95.67;100835.47;10201444;28;97947;-87
2023/09/25 18:39:45;;;;;;;3.55;1.63;;;20.90;99.90;;;19.60;95.89;100823.88;10171731;28;96805;-87
2023/09/25 18:44:50;;;;;;;2.97;1.52;;;20.90;99.90;;;19.58;96.38;100834.03;10177135;28;98583;-87
2023/09/25 18:49:56;;;;;;;6.57;1.48;;;20.80;99.90;;;19.52;97.00;100836.50;10170272;28;96825;-87
2023/09/25 18:55:00;;;;;;;7.10;1.40;;;20.80;99.90;;;19.48;97.50;100848.75;10177906;28;98072;-88
2023/09/25 19:00:06;;;;;;;2.75;1.58;;;20.70;99.90;;;19.46;98.11;100850.00;10183133;28;96662;-88
2023/09/25 19:05:10;;;;;;;3.78;1.52;;;20.70;99.90;;;19.43;98.64;100851.28;10182827;28;97425;-87
2023/09/25 19:10:14;;;;;;;5.15;1.23;;;20.70;99.90;;;19.41;98.81;100856.03;10179124;28;97488;-88
2023/09/25 19:15:20;;;;;;;2.03;1.20;;;20.70;99.90;;;19.38;99.11;100850.25;10172145;28;97993;-88
2023/09/25 19:20:24;;;;;;;3.20;1.23;;;20.70;99.90;;;19.35;99.49;100846.09;10185840;28;96644;-88
2023/09/25 19:25:28;;;;;;;3.35;1.73;;;20.60;99.90;;;19.34;99.93;100855.22;10194494;28;96606;-88
2023/09/25 19:30:35;;;;;;;5.55;1.30;;;20.60;99.90;;;19.29;100.00;100856.88;10177655;28;96662;-87
2023/09/25 19:35:39;;;;;;;4.63;1.70;;;20.60;99.90;;;19.22;99.99;100856.88;10177360;28;96641;-87
2023/09/25 19:40:44;;;;;;;4.53;1.48;;;20.50;99.90;;;19.11;100.00;100862.91;10196358;28;96635;-87
2023/09/25 19:45:49;;;;;;;3.65;1.75;;;20.30;99.90;;;18.93;100.00;100858.13;10213015;28;96739;-88
2023/09/25 19:50:53;;;;;;;4.28;2.10;;;20.30;99.90;;;18.78;100.00;100861.03;10161444;28;96595;-88
2023/09/25 19:55:56;;;;;;;4.05;1.75;;;20.10;99.90;;;18.66;100.00;100862.63;10163276;28;96599;-88
2023/09/25 20:01:15;;;;;;;3.58;1.50;;;19.90;99.90;;;18.52;100.00;100869.84;10185318;28;97401;-88
2023/09/25 20:06:18;;;;;;;4.10;1.77;;;19.80;99.90;;;18.41;100.00;100870.44;10198965;28;96669;-87
2023/09/25 20:11:22;;;;;;;3.17;1.90;;;19.70;99.90;;;18.33;100.00;100866.06;10182211;28;97434;-88
2023/09/25 20:16:27;;;;;;;8.25;1.73;;;19.60;99.90;;;18.27;100.00;100863.34;10170263;28;97586;-88
2023/09/25 20:21:31;;;;;;;5.05;1.90;;;19.50;99.90;;;18.22;100.00;100866.66;10172694;28;96791;-96
2023/09/25 20:26:35;;;;;;;3.85;1.65;;;19.50;99.90;;;18.15;100.00;100871.19;10230807;28;96777;-95
2023/09/25 20:31:40;;;;;;;2.28;1.58;;;19.40;99.90;;;18.10;100.00;100871.78;10165144;28;98912;-96
2023/09/25 20:36:47;;;;;;;5.80;1.73;;;19.40;99.90;;;17.99;100.00;100858.91;10184787;28;96717;-95
2023/09/25 20:41:53;;;;;;;3.28;1.88;;;19.30;99.90;;;17.92;100.00;100871.47;10186227;28;97601;-95
2023/09/25 20:46:58;;;;;;;3.60;2.10;;;19.20;99.90;;;17.86;100.00;100870.41;10217105;28;96830;-96